createdAt,value
2023-04-16T00:00:50.764Z,18.40
2023-04-16T00:03:17.651Z,18.53
2023-04-16T00:05:44.373Z,18.47
2023-04-16T00:08:11.163Z,18.97
2023-04-16T00:10:37.785Z,19.57
2023-04-16T00:13:04.419Z,19.33
2023-04-16T00:15:30.997Z,19.43
2023-04-16T00:17:57.716Z,20.03
2023-04-16T00:20:24.356Z,18.80
2023-04-16T00:22:51.409Z,19.43
2023-04-16T00:25:17.967Z,19.50
2023-04-16T00:27:44.541Z,19.90
2023-04-16T00:30:11.335Z,19.53
2023-04-16T00:32:37.925Z,18.67
2023-04-16T00:35:04.901Z,19.30
2023-04-16T00:37:31.453Z,19.60
2023-04-16T00:39:58.004Z,20.30
2023-04-16T00:42:24.587Z,20.23
2023-04-16T00:44:51.149Z,20.50
2023-04-16T00:47:18.691Z,20.33
2023-04-16T00:49:45.345Z,20.07
2023-04-16T00:52:12.297Z,19.33
2023-04-16T00:54:39.767Z,19.97
2023-04-16T00:57:06.436Z,19.40
2023-04-16T00:59:33.311Z,19.33
2023-04-16T01:01:59.970Z,19.83
2023-04-16T01:04:27.070Z,20.23
2023-04-16T01:06:53.876Z,19.57
2023-04-16T01:09:20.422Z,19.70
2023-04-16T01:11:47.060Z,20.17
2023-04-16T01:14:13.610Z,18.67
2023-04-16T01:16:40.425Z,19.47
2023-04-16T01:19:10.234Z,19.27
2023-04-16T01:21:36.932Z,18.50
2023-04-16T01:24:04.647Z,18.37
2023-04-16T01:26:31.802Z,18.97
2023-04-16T01:28:59.774Z,18.87
2023-04-16T01:31:26.442Z,18.30
2023-04-16T01:33:52.989Z,19.30
2023-04-16T01:36:19.635Z,19.00
2023-04-16T01:38:46.395Z,19.20
2023-04-16T01:41:12.944Z,17.60
2023-04-16T01:43:40.302Z,19.00
2023-04-16T01:46:14.890Z,18.13
2023-04-16T01:48:41.811Z,17.23
2023-04-16T01:51:08.485Z,17.97
2023-04-16T01:53:37.001Z,18.30
2023-04-16T01:56:04.065Z,18.23
2023-04-16T01:58:32.311Z,18.73
2023-04-16T02:00:59.320Z,18.57
2023-04-16T02:03:26.027Z,18.77
2023-04-16T02:05:52.968Z,18.67
2023-04-16T02:08:19.582Z,18.13
2023-04-16T02:10:47.366Z,17.50
2023-04-16T02:13:15.660Z,19.23
2023-04-16T02:15:49.615Z,18.10
2023-04-16T02:18:16.376Z,18.30
2023-04-16T02:20:44.032Z,17.13
2023-04-16T02:23:11.791Z,18.27
2023-04-16T02:25:42.895Z,17.57
2023-04-16T02:28:15.022Z,16.80
2023-04-16T02:30:41.684Z,17.97
2023-04-16T02:33:11.039Z,18.73
2023-04-16T02:35:38.985Z,19.33
2023-04-16T02:38:06.022Z,19.27
2023-04-16T02:40:32.783Z,19.27
2023-04-16T02:42:59.479Z,20.30
2023-04-16T02:45:26.043Z,20.23
2023-04-16T02:47:52.712Z,19.83
2023-04-16T02:50:19.345Z,20.83
2023-04-16T02:52:46.073Z,20.93
2023-04-16T02:55:12.713Z,20.70
2023-04-16T02:57:39.390Z,22.27
2023-04-16T03:00:06.620Z,20.77
2023-04-16T03:02:33.390Z,21.00
2023-04-16T03:04:59.985Z,20.40
2023-04-16T03:07:26.625Z,21.20
2023-04-16T03:09:53.191Z,21.33
2023-04-16T03:12:19.784Z,21.37
2023-04-16T03:14:46.337Z,21.47
2023-04-16T03:17:12.944Z,20.97
2023-04-16T03:19:39.520Z,21.43
2023-04-16T03:22:06.196Z,21.73
2023-04-16T03:24:32.903Z,21.47
2023-04-16T03:26:59.531Z,21.67
2023-04-16T03:29:26.681Z,19.53
2023-04-16T03:31:53.428Z,20.43
2023-04-16T03:34:20.041Z,20.17
2023-04-16T03:36:46.622Z,19.27
2023-04-16T03:39:13.262Z,19.07
2023-04-16T03:41:39.857Z,19.00
2023-04-16T03:44:06.408Z,18.90
2023-04-16T03:46:33.040Z,17.67
2023-04-16T03:48:59.637Z,19.13
2023-04-16T03:51:26.447Z,18.60
2023-04-16T03:53:53.148Z,18.20
2023-04-16T03:56:19.717Z,18.97
2023-04-16T03:58:46.331Z,19.40
2023-04-16T04:01:12.885Z,18.00
2023-04-16T04:03:39.867Z,19.43
2023-04-16T04:06:08.323Z,20.57
2023-04-16T04:08:35.236Z,18.90
2023-04-16T04:11:01.866Z,21.30
2023-04-16T04:13:28.460Z,20.60
2023-04-16T04:15:55.066Z,21.03
2023-04-16T04:18:21.765Z,19.63
2023-04-16T04:20:48.389Z,20.50
2023-04-16T04:23:15.021Z,20.47
2023-04-16T04:25:41.603Z,21.00
2023-04-16T04:28:08.266Z,20.80
2023-04-16T04:30:35.812Z,21.30
2023-04-16T04:33:02.665Z,20.37
2023-04-16T04:35:29.262Z,20.87
2023-04-16T04:37:55.871Z,21.30
2023-04-16T04:40:22.530Z,21.63
2023-04-16T04:42:49.168Z,21.67
2023-04-16T04:45:16.132Z,21.50
2023-04-16T04:47:42.810Z,21.47
2023-04-16T04:50:09.824Z,21.77
2023-04-16T04:52:36.693Z,21.10
2023-04-16T04:55:03.653Z,21.40
2023-04-16T04:57:30.437Z,21.77
2023-04-16T04:59:56.993Z,22.93
2023-04-16T05:02:23.605Z,21.73
2023-04-16T05:04:50.343Z,21.47
2023-04-16T05:07:16.915Z,22.10
2023-04-16T05:09:43.485Z,20.60
2023-04-16T05:12:10.113Z,21.53
2023-04-16T05:14:36.666Z,21.83
2023-04-16T05:17:03.280Z,21.13
2023-04-16T05:19:30.038Z,21.07
2023-04-16T05:21:56.654Z,20.87
2023-04-16T05:24:23.267Z,21.83
2023-04-16T05:26:49.890Z,20.60
2023-04-16T05:29:16.481Z,20.57
2023-04-16T05:31:43.161Z,20.60
2023-04-16T05:34:09.700Z,19.70
2023-04-16T05:36:36.287Z,20.17
2023-04-16T05:39:03.055Z,20.23
2023-04-16T05:41:29.793Z,19.63
2023-04-16T05:43:56.409Z,19.80
2023-04-16T05:46:23.092Z,19.50
2023-04-16T05:48:49.722Z,19.97
2023-04-16T05:51:16.373Z,19.43
2023-04-16T05:53:43.055Z,19.60
2023-04-16T05:56:09.724Z,20.03
2023-04-16T05:58:36.312Z,19.47
2023-04-16T06:01:03.343Z,19.43
2023-04-16T06:03:30.153Z,18.43
2023-04-16T06:05:56.908Z,18.10
2023-04-16T06:08:23.668Z,19.63
2023-04-16T06:10:51.044Z,19.47
2023-04-16T06:13:18.486Z,19.20
2023-04-16T06:15:45.113Z,19.17
2023-04-16T06:18:11.725Z,18.63
2023-04-16T06:20:38.428Z,18.60
2023-04-16T06:23:05.031Z,19.53
2023-04-16T06:25:31.613Z,18.00
2023-04-16T06:27:58.176Z,19.23
2023-04-16T06:30:24.762Z,18.53
2023-04-16T06:32:51.539Z,17.97
2023-04-16T06:35:20.100Z,19.30
2023-04-16T06:37:47.062Z,17.83
2023-04-16T06:40:13.698Z,18.57
2023-04-16T06:42:43.545Z,19.60
2023-04-16T06:45:12.090Z,19.47
2023-04-16T06:47:38.726Z,18.70
2023-04-16T06:50:06.073Z,19.27
2023-04-16T06:52:32.940Z,19.00
2023-04-16T06:54:59.571Z,19.33
2023-04-16T06:57:26.171Z,18.63
2023-04-16T06:59:52.750Z,19.20
2023-04-16T07:02:19.564Z,18.57
2023-04-16T07:04:46.234Z,18.27
2023-04-16T07:07:12.805Z,19.00
2023-04-16T07:09:39.424Z,19.33
2023-04-16T07:12:06.975Z,19.10
2023-04-16T07:14:33.635Z,18.47
2023-04-16T07:17:00.357Z,17.63
2023-04-16T07:19:30.508Z,17.90
2023-04-16T07:21:57.089Z,18.27
2023-04-16T07:24:23.632Z,18.73
2023-04-16T07:26:50.255Z,17.60
2023-04-16T07:29:16.853Z,18.13
2023-04-16T07:31:43.559Z,17.50
2023-04-16T07:34:10.305Z,18.67
2023-04-16T07:36:37.032Z,17.97
2023-04-16T07:39:05.031Z,18.53
2023-04-16T07:41:31.761Z,17.93
2023-04-16T07:43:58.488Z,17.33
2023-04-16T07:46:28.339Z,17.30
2023-04-16T07:48:59.910Z,17.90
2023-04-16T07:51:26.741Z,16.87
2023-04-16T07:53:53.294Z,17.47
2023-04-16T07:56:19.910Z,17.03
2023-04-16T07:58:46.509Z,17.13
2023-04-16T08:01:14.283Z,18.10
2023-04-16T08:03:42.785Z,17.97
2023-04-16T08:06:09.649Z,16.27
2023-04-16T08:08:36.308Z,17.47
2023-04-16T08:11:02.910Z,18.20
2023-04-16T08:13:30.812Z,17.67
2023-04-16T08:15:58.400Z,17.57
2023-04-16T08:18:25.182Z,17.13
2023-04-16T08:20:51.820Z,16.97
2023-04-16T08:23:18.549Z,18.37
2023-04-16T08:25:45.091Z,17.50
2023-04-16T08:28:11.700Z,17.67
2023-04-16T08:30:38.315Z,17.20
2023-04-16T08:33:05.390Z,18.23
2023-04-16T08:35:32.117Z,18.13
2023-04-16T08:38:02.162Z,18.37
2023-04-16T08:40:29.514Z,17.07
2023-04-16T08:42:59.251Z,17.77
2023-04-16T08:45:27.138Z,17.77
2023-04-16T08:47:54.322Z,18.47
2023-04-16T08:50:25.976Z,19.63
2023-04-16T08:52:53.520Z,19.13
2023-04-16T08:55:26.185Z,19.00
2023-04-16T08:57:57.266Z,18.17
2023-04-16T09:00:24.461Z,17.77
2023-04-16T09:02:52.067Z,19.67
2023-04-16T09:05:20.769Z,18.13
2023-04-16T09:07:48.415Z,18.27
2023-04-16T09:10:16.057Z,19.00
2023-04-16T09:12:46.557Z,18.00
2023-04-16T09:15:13.978Z,16.43
2023-04-16T09:17:41.138Z,17.50
2023-04-16T09:20:09.159Z,16.77
2023-04-16T09:22:36.820Z,16.27
2023-04-16T09:25:03.803Z,16.53
2023-04-16T09:27:31.093Z,16.23
2023-04-16T09:29:58.088Z,15.70
2023-04-16T09:32:27.229Z,15.97
2023-04-16T09:34:59.297Z,16.20
2023-04-16T09:37:27.440Z,14.77
2023-04-16T09:39:56.728Z,15.30
2023-04-16T09:42:27.405Z,15.90
2023-04-16T09:44:54.998Z,15.40
2023-04-16T09:47:24.204Z,16.47
2023-04-16T09:49:50.964Z,15.87
2023-04-16T09:52:20.037Z,16.37
2023-04-16T09:54:53.908Z,17.97
2023-04-16T09:57:22.460Z,17.07
2023-04-16T10:00:02.041Z,18.03
2023-04-16T10:02:29.348Z,18.87
2023-04-16T10:04:57.615Z,17.20
2023-04-16T10:07:29.058Z,18.40
2023-04-16T10:09:56.678Z,18.67
2023-04-16T10:12:23.253Z,19.30
2023-04-16T10:14:50.396Z,19.50
2023-04-16T10:17:17.550Z,19.13
2023-04-16T10:19:45.602Z,19.57
2023-04-16T10:22:13.007Z,19.93
2023-04-16T10:24:44.378Z,19.87
2023-04-16T10:27:14.674Z,19.23
2023-04-16T10:29:41.600Z,19.20
2023-04-16T10:32:08.710Z,19.50
2023-04-16T10:34:36.727Z,18.93
2023-04-16T10:37:03.292Z,18.63
2023-04-16T10:39:29.943Z,17.83
2023-04-16T10:42:11.942Z,18.23
2023-04-16T10:44:45.195Z,16.53
2023-04-16T10:47:13.488Z,17.33
2023-04-16T10:49:40.971Z,17.53
2023-04-16T10:52:12.849Z,18.47
2023-04-16T10:54:40.796Z,17.80
2023-04-16T10:57:10.425Z,17.27
2023-04-16T10:59:38.428Z,17.47
2023-04-16T11:02:13.376Z,17.53
2023-04-16T11:04:43.109Z,16.17
2023-04-16T11:07:16.392Z,15.50
2023-04-16T11:09:56.555Z,15.80
2023-04-16T11:12:27.762Z,16.47
2023-04-16T11:15:01.609Z,15.53
2023-04-16T11:17:30.751Z,15.30
2023-04-16T11:19:57.666Z,15.93
2023-04-16T11:22:24.617Z,16.90
2023-04-16T11:24:56.368Z,15.53
2023-04-16T11:27:24.481Z,16.63
2023-04-16T11:30:01.885Z,16.10
2023-04-16T11:32:31.912Z,15.30
2023-04-16T11:34:59.909Z,15.40
2023-04-16T11:37:34.833Z,15.27
2023-04-16T11:40:06.919Z,14.87
2023-04-16T11:42:37.616Z,14.37
2023-04-16T11:45:04.948Z,14.73
2023-04-16T11:47:31.853Z,15.77
2023-04-16T11:50:18.915Z,16.80
2023-04-16T11:52:45.602Z,13.70
2023-04-16T11:55:12.181Z,13.03
2023-04-16T11:57:38.790Z,12.47
2023-04-16T12:00:10.638Z,12.03
2023-04-16T12:02:39.856Z,13.97
2023-04-16T12:05:28.614Z,13.77
2023-04-16T12:07:55.836Z,12.50
2023-04-16T12:10:22.693Z,13.27
2023-04-16T12:12:49.522Z,12.17
2023-04-16T12:15:16.450Z,12.00
2023-04-16T12:17:43.503Z,12.17
2023-04-16T12:20:15.405Z,14.97
2023-04-16T12:22:49.808Z,10.53
2023-04-16T12:25:17.945Z,10.03
2023-04-16T12:27:53.990Z,10.13
2023-04-16T12:30:22.845Z,10.70
2023-04-16T12:32:51.741Z,10.50
2023-04-16T12:35:32.304Z,10.17
2023-04-16T12:37:59.645Z,9.80
2023-04-16T12:40:26.831Z,10.47
2023-04-16T12:42:53.412Z,10.23
2023-04-16T12:45:20.745Z,9.80
2023-04-16T12:47:47.948Z,10.30
2023-04-16T12:50:14.559Z,10.03
2023-04-16T12:52:41.396Z,10.00
2023-04-16T12:55:08.671Z,10.47
2023-04-16T12:57:35.660Z,9.70
2023-04-16T13:00:02.237Z,9.73
2023-04-16T13:02:29.488Z,9.17
2023-04-16T13:05:04.646Z,9.73
2023-04-16T13:07:32.308Z,9.57
2023-04-16T13:09:59.434Z,9.67
2023-04-16T13:12:27.233Z,9.40
2023-04-16T13:14:55.417Z,9.13
2023-04-16T13:17:22.300Z,9.07
2023-04-16T13:19:48.882Z,8.83
2023-04-16T13:22:15.713Z,8.90
2023-04-16T13:24:42.293Z,9.03
2023-04-16T13:27:12.454Z,9.10
2023-04-16T13:29:39.125Z,9.13
2023-04-16T13:32:06.274Z,9.20
2023-04-16T13:34:32.910Z,10.33
2023-04-16T13:36:59.519Z,9.43
2023-04-16T13:39:26.156Z,11.70
2023-04-16T13:41:52.826Z,10.20
2023-04-16T13:44:19.376Z,9.27
2023-04-16T13:46:47.837Z,9.23
2023-04-16T13:49:14.913Z,8.93
2023-04-16T13:51:44.694Z,8.60
2023-04-16T13:54:11.309Z,8.97
2023-04-16T13:56:38.031Z,9.73
2023-04-16T13:59:04.636Z,8.60
2023-04-16T14:01:31.325Z,8.20
2023-04-16T14:03:59.480Z,7.90
2023-04-16T14:06:26.952Z,7.83
2023-04-16T14:08:53.574Z,7.27
2023-04-16T14:11:20.515Z,7.27
2023-04-16T14:13:47.476Z,6.83
2023-04-16T14:16:14.223Z,6.83
2023-04-16T14:18:42.387Z,6.70
2023-04-16T14:21:09.433Z,6.60
2023-04-16T14:23:36.045Z,6.60
2023-04-16T14:26:03.549Z,6.90
2023-04-16T14:28:30.439Z,6.80
2023-04-16T14:30:57.048Z,7.67
2023-04-16T14:33:23.736Z,7.03
2023-04-16T14:35:51.326Z,6.93
2023-04-16T14:38:18.166Z,7.00
2023-04-16T14:40:45.278Z,7.53
2023-04-16T14:43:12.380Z,7.13
2023-04-16T14:45:39.442Z,7.33
2023-04-16T14:48:17.512Z,7.23
2023-04-16T14:50:44.858Z,6.13
2023-04-16T14:53:12.427Z,6.50
2023-04-16T14:55:39.636Z,6.83
2023-04-16T14:58:06.567Z,7.30
2023-04-16T15:00:35.632Z,7.53
2023-04-16T15:03:03.052Z,7.97
2023-04-16T15:05:31.741Z,8.30
2023-04-16T15:07:58.771Z,8.33
2023-04-16T15:10:25.654Z,9.20
2023-04-16T15:12:52.442Z,9.17
2023-04-16T15:15:19.320Z,8.80
2023-04-16T15:17:46.151Z,8.87
2023-04-16T15:20:13.551Z,8.33
2023-04-16T15:22:40.362Z,10.17
2023-04-16T15:25:07.513Z,8.63
2023-04-16T15:27:36.830Z,8.80
2023-04-16T15:30:03.722Z,8.90
2023-04-16T15:32:35.120Z,8.80
2023-04-16T15:35:03.017Z,8.93
2023-04-16T15:37:29.597Z,8.70
2023-04-16T15:39:56.601Z,9.97
2023-04-16T15:42:24.038Z,8.97
2023-04-16T15:44:50.669Z,9.43
2023-04-16T15:47:17.444Z,9.37
2023-04-16T15:49:44.005Z,9.30
2023-04-16T15:52:11.936Z,8.90
2023-04-16T15:54:38.818Z,8.70
2023-04-16T15:57:05.564Z,9.70
2023-04-16T15:59:32.931Z,9.03
2023-04-16T16:02:00.023Z,9.77
2023-04-16T16:04:28.056Z,9.07
2023-04-16T16:06:54.882Z,9.17
2023-04-16T16:09:26.089Z,9.33
2023-04-16T16:11:54.331Z,9.40
2023-04-16T16:14:22.247Z,9.07
2023-04-16T16:16:48.903Z,8.33
2023-04-16T16:19:15.664Z,10.03
2023-04-16T16:21:42.422Z,9.57
2023-04-16T16:24:09.385Z,10.40
2023-04-16T16:26:36.195Z,9.73
2023-04-16T16:29:03.084Z,9.97
2023-04-16T16:31:29.852Z,9.70
2023-04-16T16:33:59.772Z,9.13
2023-04-16T16:36:29.875Z,8.93
2023-04-16T16:38:57.193Z,9.47
2023-04-16T16:41:23.804Z,9.00
2023-04-16T16:43:50.978Z,8.53
2023-04-16T16:46:17.730Z,8.73
2023-04-16T16:48:44.546Z,8.27
2023-04-16T16:51:11.642Z,8.70
2023-04-16T16:53:38.536Z,8.50
2023-04-16T16:56:05.655Z,9.13
2023-04-16T16:58:32.528Z,9.20
2023-04-16T17:01:02.644Z,8.90
2023-04-16T17:03:29.321Z,9.13
2023-04-16T17:05:56.126Z,12.23
2023-04-16T17:08:22.669Z,8.60
2023-04-16T17:10:49.266Z,8.73
2023-04-16T17:13:19.623Z,8.93
2023-04-16T17:15:46.801Z,8.90
2023-04-16T17:18:13.978Z,8.97
2023-04-16T17:20:41.005Z,9.63
2023-04-16T17:23:07.736Z,8.97
2023-04-16T17:25:34.281Z,8.90
2023-04-16T17:28:01.328Z,9.37
2023-04-16T17:30:28.050Z,9.57
2023-04-16T17:32:54.652Z,9.17
2023-04-16T17:35:22.764Z,9.70
2023-04-16T17:37:49.339Z,9.43
2023-04-16T17:40:18.434Z,10.10
2023-04-16T17:42:45.440Z,8.93
2023-04-16T17:45:12.337Z,9.33
2023-04-16T17:47:39.000Z,9.90
2023-04-16T17:50:06.414Z,10.33
2023-04-16T17:52:33.242Z,9.30
2023-04-16T17:55:03.824Z,9.80
2023-04-16T17:57:31.077Z,9.90
2023-04-16T17:59:57.981Z,9.40
2023-04-16T18:02:25.584Z,8.80
2023-04-16T18:04:52.568Z,9.23
2023-04-16T18:07:22.073Z,8.07
2023-04-16T18:09:48.712Z,8.50
2023-04-16T18:12:16.392Z,8.50
2023-04-16T18:14:44.715Z,8.30
2023-04-16T18:17:11.653Z,9.23
2023-04-16T18:19:40.521Z,7.93
2023-04-16T18:22:07.126Z,8.33
2023-04-16T18:24:35.469Z,8.07
2023-04-16T18:27:03.312Z,8.77
2023-04-16T18:29:30.112Z,8.73
2023-04-16T18:31:56.901Z,8.27
2023-04-16T18:34:25.434Z,8.30
2023-04-16T18:36:52.286Z,8.10
2023-04-16T18:39:19.035Z,8.40
2023-04-16T18:41:47.797Z,8.80
2023-04-16T18:44:16.377Z,7.80
2023-04-16T18:46:43.075Z,9.57
2023-04-16T18:49:12.633Z,8.97
2023-04-16T18:51:40.017Z,9.63
2023-04-16T18:54:06.650Z,9.10
2023-04-16T18:56:33.424Z,9.20
2023-04-16T18:59:00.123Z,10.17
2023-04-16T19:01:26.767Z,10.20
2023-04-16T19:03:53.522Z,9.77
2023-04-16T19:06:20.195Z,9.33
2023-04-16T19:08:46.738Z,9.50
2023-04-16T19:11:13.514Z,9.37
2023-04-16T19:13:40.087Z,9.40
2023-04-16T19:16:11.174Z,8.70
2023-04-16T19:18:41.867Z,8.50
2023-04-16T19:21:10.650Z,8.50
2023-04-16T19:23:37.411Z,9.23
2023-04-16T19:26:04.432Z,8.80
2023-04-16T19:28:31.231Z,9.07
2023-04-16T19:30:57.899Z,9.13
2023-04-16T19:33:24.556Z,8.80
2023-04-16T19:35:51.150Z,9.57
2023-04-16T19:38:17.723Z,9.03
2023-04-16T19:40:46.503Z,9.17
2023-04-16T19:43:13.247Z,8.67
2023-04-16T19:45:47.398Z,8.90
2023-04-16T19:48:14.463Z,8.60
2023-04-16T19:50:42.054Z,8.40
2023-04-16T19:53:09.147Z,8.43
2023-04-16T19:55:36.431Z,8.40
2023-04-16T19:58:06.337Z,8.53
2023-04-16T20:00:33.867Z,9.00
2023-04-16T20:03:00.757Z,9.20
2023-04-16T20:05:28.068Z,8.67
2023-04-16T20:07:55.595Z,8.23
2023-04-16T20:10:23.332Z,8.60
2023-04-16T20:12:53.794Z,8.23
2023-04-16T20:15:20.673Z,8.40
2023-04-16T20:17:47.450Z,8.63
2023-04-16T20:20:15.791Z,8.30
2023-04-16T20:22:43.102Z,7.70
2023-04-16T20:25:09.916Z,7.23
2023-04-16T20:27:36.534Z,8.00
2023-04-16T20:30:04.056Z,7.67
2023-04-16T20:32:30.974Z,8.07
2023-04-16T20:34:57.578Z,8.07
2023-04-16T20:37:24.153Z,8.27
2023-04-16T20:39:53.938Z,8.33
2023-04-16T20:42:22.069Z,8.07
2023-04-16T20:44:55.664Z,7.90
2023-04-16T20:47:22.709Z,8.00
2023-04-16T20:49:49.860Z,7.70
2023-04-16T20:52:17.472Z,7.50
2023-04-16T20:54:44.471Z,7.60
2023-04-16T20:57:11.077Z,7.37
2023-04-16T20:59:37.645Z,7.40
2023-04-16T21:02:04.625Z,7.23
2023-04-16T21:04:31.575Z,7.53
2023-04-16T21:06:58.284Z,8.37
2023-04-16T21:09:24.932Z,8.10
2023-04-16T21:11:51.585Z,8.10
2023-04-16T21:14:18.740Z,7.77
2023-04-16T21:16:45.427Z,7.70
2023-04-16T21:19:12.087Z,8.13
2023-04-16T21:21:38.937Z,7.90
2023-04-16T21:24:05.810Z,8.30
2023-04-16T21:26:32.478Z,7.87
2023-04-16T21:28:59.093Z,7.57
2023-04-16T21:31:25.734Z,8.30
2023-04-16T21:33:52.442Z,8.23
2023-04-16T21:36:19.200Z,7.60
2023-04-16T21:38:45.879Z,9.00
2023-04-16T21:41:12.409Z,8.00
2023-04-16T21:43:39.016Z,8.53
2023-04-16T21:46:05.719Z,8.73
2023-04-16T21:48:32.298Z,8.30
2023-04-16T21:51:05.979Z,9.10
2023-04-16T21:53:33.216Z,8.67
2023-04-16T21:55:59.989Z,8.20
2023-04-16T21:58:26.644Z,8.63
2023-04-16T22:00:53.392Z,9.00
2023-04-16T22:03:26.341Z,8.80
2023-04-16T22:06:02.797Z,7.63
2023-04-16T22:08:30.158Z,7.90
2023-04-16T22:10:59.071Z,8.90
2023-04-16T22:13:26.263Z,8.97
2023-04-16T22:15:53.428Z,8.90
2023-04-16T22:18:20.164Z,8.60
2023-04-16T22:20:50.824Z,8.73
2023-04-16T22:23:17.666Z,8.80
2023-04-16T22:25:44.372Z,8.20
2023-04-16T22:28:11.474Z,8.50
2023-04-16T22:30:38.259Z,8.87
2023-04-16T22:33:04.980Z,8.50
2023-04-16T22:35:31.692Z,9.17
2023-04-16T22:37:58.325Z,8.57
2023-04-16T22:40:24.878Z,9.20
2023-04-16T22:42:51.429Z,8.43
2023-04-16T22:45:18.094Z,8.90
2023-04-16T22:47:44.795Z,9.43
2023-04-16T22:50:11.583Z,8.80
2023-04-16T22:52:38.211Z,9.50
2023-04-16T22:55:05.386Z,8.77
2023-04-16T22:57:31.995Z,8.77
2023-04-16T22:59:58.557Z,9.50
2023-04-16T23:02:25.228Z,9.30
2023-04-16T23:04:51.886Z,9.13
2023-04-16T23:07:18.512Z,9.33
2023-04-16T23:09:45.197Z,9.67
2023-04-16T23:12:11.758Z,9.03
2023-04-16T23:14:38.431Z,10.10
2023-04-16T23:17:05.083Z,9.17
2023-04-16T23:19:31.705Z,9.57
2023-04-16T23:21:58.625Z,10.33
2023-04-16T23:24:25.174Z,9.47
2023-04-16T23:26:53.295Z,9.90
2023-04-16T23:29:20.795Z,10.17
2023-04-16T23:31:47.718Z,8.70
2023-04-16T23:34:14.461Z,9.73
2023-04-16T23:36:41.406Z,10.00
2023-04-16T23:39:08.145Z,9.53
2023-04-16T23:41:34.911Z,9.27
2023-04-16T23:44:01.527Z,9.77
2023-04-16T23:46:28.347Z,9.33
2023-04-16T23:48:55.297Z,9.03
2023-04-16T23:51:22.022Z,10.20
2023-04-16T23:53:48.621Z,10.20
2023-04-16T23:56:15.921Z,9.43
2023-04-16T23:58:42.556Z,10.50
